Terminal Aerodrome Forecast
Issued by NWS

Home | Current Version | Previous Version | Graphics & Text | Print | Product List | Glossary On
Versions: 1 2 3 4 5 6 7 8 9 10 11 12 13 14 15 16 17
016
FTUS41 KCLE 231125
TAFFDY
TAF
KFDY 231125Z 2312/2412 VRB03KT P6SM SKC
      TEMPO 2312/2313 4SM BR
     FM231300 26007KT P6SM SKC
     FM240900 VRB03KT 4SM BR SKC=

USA.gov is the U.S. government's official web portal to all federal, state and local government web resources and services.